sensor_id;sensor_type;location;lat;lon;timestamp;P1;durP1;ratioP1;P2;durP2;ratioP2
66559;SDS011;53413;49.878;8.142;2022-09-27T00:01:31;2.50;;;0.90;;
66559;SDS011;53413;49.878;8.142;2022-09-27T00:03:56;3.05;;;1.02;;
66559;SDS011;53413;49.878;8.142;2022-09-27T00:06:25;2.90;;;0.87;;
66559;SDS011;53413;49.878;8.142;2022-09-27T00:08:53;3.03;;;0.88;;
66559;SDS011;53413;49.878;8.142;2022-09-27T00:11:23;2.90;;;0.82;;
66559;SDS011;53413;49.878;8.142;2022-09-27T00:13:51;3.85;;;0.90;;
66559;SDS011;53413;49.878;8.142;2022-09-27T00:16:18;2.60;;;0.80;;
66559;SDS011;53413;49.878;8.142;2022-09-27T00:18:44;3.63;;;0.90;;
66559;SDS011;53413;49.878;8.142;2022-09-27T00:21:10;2.50;;;0.80;;
66559;SDS011;53413;49.878;8.142;2022-09-27T00:23:37;2.60;;;0.70;;
66559;SDS011;53413;49.878;8.142;2022-09-27T00:26:03;3.40;;;1.03;;
66559;SDS011;53413;49.878;8.142;2022-09-27T00:28:29;2.50;;;0.80;;
66559;SDS011;53413;49.878;8.142;2022-09-27T00:30:55;3.73;;;0.90;;
66559;SDS011;53413;49.878;8.142;2022-09-27T00:33:21;3.25;;;0.93;;
66559;SDS011;53413;49.878;8.142;2022-09-27T00:35:47;3.73;;;1.30;;
66559;SDS011;53413;49.878;8.142;2022-09-27T00:38:12;4.50;;;1.30;;
66559;SDS011;53413;49.878;8.142;2022-09-27T00:40:37;7.27;;;1.90;;
66559;SDS011;53413;49.878;8.142;2022-09-27T00:43:09;3.43;;;1.20;;
66559;SDS011;53413;49.878;8.142;2022-09-27T00:45:43;3.92;;;1.25;;
66559;SDS011;53413;49.878;8.142;2022-09-27T00:48:14;3.83;;;1.08;;
66559;SDS011;53413;49.878;8.142;2022-09-27T00:50:42;3.70;;;1.10;;
66559;SDS011;53413;49.878;8.142;2022-09-27T00:53:23;3.50;;;1.15;;
66559;SDS011;53413;49.878;8.142;2022-09-27T00:55:58;3.30;;;1.20;;
66559;SDS011;53413;49.878;8.142;2022-09-27T00:58:30;2.85;;;1.00;;
66559;SDS011;53413;49.878;8.142;2022-09-27T01:01:00;4.35;;;1.15;;
66559;SDS011;53413;49.878;8.142;2022-09-27T01:06:03;3.58;;;1.00;;
66559;SDS011;53413;49.878;8.142;2022-09-27T01:08:32;4.15;;;1.10;;
66559;SDS011;53413;49.878;8.142;2022-09-27T01:16:53;5.05;;;1.20;;
66559;SDS011;53413;49.878;8.142;2022-09-27T01:22:24;5.00;;;1.30;;
66559;SDS011;53413;49.878;8.142;2022-09-27T01:25:06;5.10;;;1.40;;
66559;SDS011;53413;49.878;8.142;2022-09-27T01:30:36;4.63;;;1.45;;
66559;SDS011;53413;49.878;8.142;2022-09-27T01:43:52;5.50;;;1.45;;
66559;SDS011;53413;49.878;8.142;2022-09-27T01:46:47;7.50;;;1.55;;
66559;SDS011;53413;49.878;8.142;2022-09-27T01:49:17;7.78;;;1.50;;
66559;SDS011;53413;49.878;8.142;2022-09-27T01:51:52;5.10;;;1.55;;
66559;SDS011;53413;49.878;8.142;2022-09-27T01:54:24;6.67;;;1.50;;
66559;SDS011;53413;49.878;8.142;2022-09-27T01:57:03;4.97;;;1.35;;
66559;SDS011;53413;49.878;8.142;2022-09-27T01:59:42;5.65;;;1.58;;
66559;SDS011;53413;49.878;8.142;2022-09-27T02:02:11;5.88;;;1.27;;
66559;SDS011;53413;49.878;8.142;2022-09-27T02:04:41;4.28;;;1.23;;
66559;SDS011;53413;49.878;8.142;2022-09-27T02:07:13;5.47;;;1.40;;
66559;SDS011;53413;49.878;8.142;2022-09-27T02:09:50;5.00;;;1.30;;
66559;SDS011;53413;49.878;8.142;2022-09-27T02:12:23;5.97;;;1.30;;
66559;SDS011;53413;49.878;8.142;2022-09-27T02:15:00;5.38;;;1.30;;
66559;SDS011;53413;49.878;8.142;2022-09-27T02:20:15;5.63;;;1.20;;
66559;SDS011;53413;49.878;8.142;2022-09-27T02:28:21;4.40;;;1.27;;
66559;SDS011;53413;49.878;8.142;2022-09-27T02:30:52;4.90;;;1.63;;
66559;SDS011;53413;49.878;8.142;2022-09-27T02:33:19;4.87;;;1.23;;
66559;SDS011;53413;49.878;8.142;2022-09-27T02:35:48;5.40;;;1.13;;
66559;SDS011;53413;49.878;8.142;2022-09-27T02:38:14;3.30;;;1.17;;
66559;SDS011;53413;49.878;8.142;2022-09-27T02:40:42;3.97;;;1.00;;
66559;SDS011;53413;49.878;8.142;2022-09-27T02:43:09;4.65;;;1.10;;
66559;SDS011;53413;49.878;8.142;2022-09-27T02:48:20;3.22;;;1.02;;
66559;SDS011;53413;49.878;8.142;2022-09-27T02:51:08;3.22;;;1.00;;
66559;SDS011;53413;49.878;8.142;2022-09-27T02:54:03;4.67;;;0.90;;
66559;SDS011;53413;49.878;8.142;2022-09-27T02:56:41;3.20;;;0.90;;
66559;SDS011;53413;49.878;8.142;2022-09-27T02:59:37;3.15;;;0.88;;
66559;SDS011;53413;49.878;8.142;2022-09-27T03:07:54;2.20;;;0.50;;
66559;SDS011;53413;49.878;8.142;2022-09-27T03:10:21;2.47;;;0.50;;
66559;SDS011;53413;49.878;8.142;2022-09-27T03:12:49;2.20;;;0.50;;
66559;SDS011;53413;49.878;8.142;2022-09-27T03:15:14;1.70;;;0.40;;
66559;SDS011;53413;49.878;8.142;2022-09-27T03:17:40;2.73;;;0.50;;
66559;SDS011;53413;49.878;8.142;2022-09-27T03:20:06;2.53;;;0.70;;
66559;SDS011;53413;49.878;8.142;2022-09-27T03:22:32;2.00;;;0.50;;
66559;SDS011;53413;49.878;8.142;2022-09-27T03:24:58;2.00;;;0.50;;
66559;SDS011;53413;49.878;8.142;2022-09-27T03:27:23;2.93;;;0.70;;
66559;SDS011;53413;49.878;8.142;2022-09-27T03:29:49;1.67;;;0.50;;
66559;SDS011;53413;49.878;8.142;2022-09-27T03:32:14;2.00;;;0.47;;
66559;SDS011;53413;49.878;8.142;2022-09-27T03:34:40;2.27;;;0.53;;
66559;SDS011;53413;49.878;8.142;2022-09-27T03:37:05;2.00;;;0.53;;
66559;SDS011;53413;49.878;8.142;2022-09-27T03:39:31;2.10;;;0.60;;
66559;SDS011;53413;49.878;8.142;2022-09-27T03:41:57;3.67;;;0.60;;
66559;SDS011;53413;49.878;8.142;2022-09-27T03:44:22;2.70;;;0.70;;
66559;SDS011;53413;49.878;8.142;2022-09-27T03:46:48;2.83;;;0.77;;
66559;SDS011;53413;49.878;8.142;2022-09-27T03:49:13;3.37;;;0.70;;
66559;SDS011;53413;49.878;8.142;2022-09-27T03:51:39;2.47;;;0.70;;
66559;SDS011;53413;49.878;8.142;2022-09-27T03:54:05;2.47;;;0.70;;
66559;SDS011;53413;49.878;8.142;2022-09-27T03:56:30;3.10;;;0.60;;
66559;SDS011;53413;49.878;8.142;2022-09-27T03:58:56;2.17;;;0.67;;
66559;SDS011;53413;49.878;8.142;2022-09-27T04:01:21;2.63;;;0.60;;
66559;SDS011;53413;49.878;8.142;2022-09-27T04:03:47;3.28;;;0.70;;
66559;SDS011;53413;49.878;8.142;2022-09-27T04:06:12;3.10;;;0.70;;
66559;SDS011;53413;49.878;8.142;2022-09-27T04:08:38;3.03;;;0.53;;
66559;SDS011;53413;49.878;8.142;2022-09-27T04:11:03;2.80;;;0.90;;
66559;SDS011;53413;49.878;8.142;2022-09-27T04:13:29;3.38;;;0.77;;
66559;SDS011;53413;49.878;8.142;2022-09-27T04:15:54;2.50;;;0.70;;
66559;SDS011;53413;49.878;8.142;2022-09-27T04:18:20;4.70;;;0.90;;
66559;SDS011;53413;49.878;8.142;2022-09-27T04:20:45;3.00;;;0.73;;
66559;SDS011;53413;49.878;8.142;2022-09-27T04:23:11;2.87;;;0.80;;
66559;SDS011;53413;49.878;8.142;2022-09-27T04:25:36;3.23;;;0.80;;
66559;SDS011;53413;49.878;8.142;2022-09-27T04:28:04;2.50;;;0.70;;
66559;SDS011;53413;49.878;8.142;2022-09-27T04:30:30;3.22;;;1.00;;
66559;SDS011;53413;49.878;8.142;2022-09-27T04:32:55;2.60;;;0.60;;
66559;SDS011;53413;49.878;8.142;2022-09-27T04:35:21;2.60;;;0.70;;
66559;SDS011;53413;49.878;8.142;2022-09-27T04:38:04;3.47;;;0.70;;
66559;SDS011;53413;49.878;8.142;2022-09-27T04:40:32;2.80;;;0.73;;
66559;SDS011;53413;49.878;8.142;2022-09-27T04:42:59;2.90;;;0.70;;
66559;SDS011;53413;49.878;8.142;2022-09-27T04:45:25;3.70;;;0.77;;
66559;SDS011;53413;49.878;8.142;2022-09-27T04:47:50;3.27;;;0.63;;
66559;SDS011;53413;49.878;8.142;2022-09-27T04:50:16;2.87;;;0.90;;
66559;SDS011;53413;49.878;8.142;2022-09-27T04:52:42;2.60;;;0.70;;
66559;SDS011;53413;49.878;8.142;2022-09-27T04:55:08;3.42;;;0.65;;
66559;SDS011;53413;49.878;8.142;2022-09-27T04:57:34;3.67;;;1.57;;
66559;SDS011;53413;49.878;8.142;2022-09-27T05:00:00;4.05;;;1.90;;
66559;SDS011;53413;49.878;8.142;2022-09-27T05:02:26;5.20;;;2.30;;
66559;SDS011;53413;49.878;8.142;2022-09-27T05:04:53;3.97;;;1.30;;
66559;SDS011;53413;49.878;8.142;2022-09-27T05:07:23;3.15;;;1.17;;
66559;SDS011;53413;49.878;8.142;2022-09-27T05:09:49;4.85;;;2.10;;
66559;SDS011;53413;49.878;8.142;2022-09-27T05:12:15;5.00;;;1.63;;
66559;SDS011;53413;49.878;8.142;2022-09-27T05:14:40;4.13;;;1.77;;
66559;SDS011;53413;49.878;8.142;2022-09-27T05:17:05;4.50;;;1.60;;
66559;SDS011;53413;49.878;8.142;2022-09-27T05:19:32;4.90;;;2.50;;
66559;SDS011;53413;49.878;8.142;2022-09-27T05:21:58;3.40;;;1.50;;
66559;SDS011;53413;49.878;8.142;2022-09-27T05:24:23;4.53;;;1.60;;
66559;SDS011;53413;49.878;8.142;2022-09-27T05:26:49;3.50;;;1.70;;
66559;SDS011;53413;49.878;8.142;2022-09-27T05:29:15;4.18;;;1.60;;
66559;SDS011;53413;49.878;8.142;2022-09-27T05:31:41;3.75;;;1.70;;
66559;SDS011;53413;49.878;8.142;2022-09-27T05:34:07;3.13;;;1.00;;
66559;SDS011;53413;49.878;8.142;2022-09-27T05:36:34;3.15;;;1.10;;
66559;SDS011;53413;49.878;8.142;2022-09-27T05:39:01;2.80;;;0.90;;
66559;SDS011;53413;49.878;8.142;2022-09-27T05:41:26;2.97;;;0.70;;
66559;SDS011;53413;49.878;8.142;2022-09-27T05:43:52;2.87;;;0.80;;
66559;SDS011;53413;49.878;8.142;2022-09-27T05:46:17;2.47;;;0.87;;
66559;SDS011;53413;49.878;8.142;2022-09-27T05:48:43;2.63;;;0.77;;
66559;SDS011;53413;49.878;8.142;2022-09-27T05:51:08;2.70;;;0.93;;
66559;SDS011;53413;49.878;8.142;2022-09-27T05:53:33;2.70;;;0.70;;
66559;SDS011;53413;49.878;8.142;2022-09-27T05:56:05;3.00;;;0.70;;
66559;SDS011;53413;49.878;8.142;2022-09-27T05:58:30;2.55;;;0.80;;
66559;SDS011;53413;49.878;8.142;2022-09-27T06:00:56;3.30;;;0.80;;
66559;SDS011;53413;49.878;8.142;2022-09-27T06:03:21;2.90;;;0.80;;
66559;SDS011;53413;49.878;8.142;2022-09-27T06:05:47;2.57;;;0.80;;
66559;SDS011;53413;49.878;8.142;2022-09-27T06:08:12;3.47;;;0.80;;
66559;SDS011;53413;49.878;8.142;2022-09-27T06:10:38;2.80;;;0.90;;
66559;SDS011;53413;49.878;8.142;2022-09-27T06:13:11;3.20;;;1.20;;
66559;SDS011;53413;49.878;8.142;2022-09-27T06:15:38;3.67;;;1.30;;
66559;SDS011;53413;49.878;8.142;2022-09-27T06:18:06;3.20;;;0.90;;
66559;SDS011;53413;49.878;8.142;2022-09-27T06:20:34;2.67;;;0.95;;
66559;SDS011;53413;49.878;8.142;2022-09-27T06:23:04;2.85;;;1.10;;
66559;SDS011;53413;49.878;8.142;2022-09-27T06:25:31;3.10;;;1.15;;
66559;SDS011;53413;49.878;8.142;2022-09-27T06:27:57;4.00;;;1.20;;
66559;SDS011;53413;49.878;8.142;2022-09-27T06:30:23;4.30;;;1.10;;
66559;SDS011;53413;49.878;8.142;2022-09-27T06:32:50;2.80;;;1.08;;
66559;SDS011;53413;49.878;8.142;2022-09-27T06:35:19;3.10;;;1.30;;
66559;SDS011;53413;49.878;8.142;2022-09-27T06:37:46;2.88;;;1.00;;
66559;SDS011;53413;49.878;8.142;2022-09-27T06:40:11;3.13;;;1.53;;
66559;SDS011;53413;49.878;8.142;2022-09-27T06:42:36;3.30;;;1.20;;
66559;SDS011;53413;49.878;8.142;2022-09-27T06:45:03;3.30;;;1.40;;
66559;SDS011;53413;49.878;8.142;2022-09-27T06:47:34;3.08;;;0.85;;
66559;SDS011;53413;49.878;8.142;2022-09-27T06:49:59;2.70;;;0.70;;
66559;SDS011;53413;49.878;8.142;2022-09-27T06:52:29;2.70;;;0.68;;
66559;SDS011;53413;49.878;8.142;2022-09-27T06:54:56;2.85;;;0.88;;
66559;SDS011;53413;49.878;8.142;2022-09-27T06:57:21;2.90;;;0.70;;
66559;SDS011;53413;49.878;8.142;2022-09-27T07:00:05;2.78;;;0.70;;
66559;SDS011;53413;49.878;8.142;2022-09-27T07:02:51;3.30;;;0.70;;
66559;SDS011;53413;49.878;8.142;2022-09-27T07:05:25;3.47;;;0.70;;
66559;SDS011;53413;49.878;8.142;2022-09-27T07:07:53;3.20;;;0.80;;
66559;SDS011;53413;49.878;8.142;2022-09-27T07:10:21;2.92;;;0.73;;
66559;SDS011;53413;49.878;8.142;2022-09-27T07:12:51;2.38;;;0.63;;
66559;SDS011;53413;49.878;8.142;2022-09-27T07:15:17;3.03;;;0.90;;
66559;SDS011;53413;49.878;8.142;2022-09-27T07:17:45;3.35;;;0.90;;
66559;SDS011;53413;49.878;8.142;2022-09-27T07:20:20;4.03;;;0.90;;
66559;SDS011;53413;49.878;8.142;2022-09-27T07:22:45;3.93;;;1.20;;
66559;SDS011;53413;49.878;8.142;2022-09-27T07:25:10;3.00;;;1.00;;
66559;SDS011;53413;49.878;8.142;2022-09-27T07:27:36;2.90;;;0.87;;
66559;SDS011;53413;49.878;8.142;2022-09-27T07:30:05;3.00;;;0.75;;
66559;SDS011;53413;49.878;8.142;2022-09-27T07:32:31;3.08;;;0.80;;
66559;SDS011;53413;49.878;8.142;2022-09-27T07:34:57;2.63;;;1.00;;
66559;SDS011;53413;49.878;8.142;2022-09-27T07:37:22;3.27;;;1.10;;
66559;SDS011;53413;49.878;8.142;2022-09-27T07:39:48;3.33;;;1.20;;
66559;SDS011;53413;49.878;8.142;2022-09-27T07:42:13;2.63;;;0.73;;
66559;SDS011;53413;49.878;8.142;2022-09-27T07:44:38;4.55;;;1.08;;
66559;SDS011;53413;49.878;8.142;2022-09-27T07:47:07;2.10;;;0.70;;
66559;SDS011;53413;49.878;8.142;2022-09-27T07:49:33;3.70;;;1.00;;
66559;SDS011;53413;49.878;8.142;2022-09-27T07:51:58;2.70;;;0.80;;
66559;SDS011;53413;49.878;8.142;2022-09-27T07:54:23;2.53;;;1.20;;
66559;SDS011;53413;49.878;8.142;2022-09-27T07:56:49;2.60;;;1.17;;
66559;SDS011;53413;49.878;8.142;2022-09-27T07:59:14;3.43;;;1.33;;
66559;SDS011;53413;49.878;8.142;2022-09-27T08:01:40;2.80;;;1.17;;
66559;SDS011;53413;49.878;8.142;2022-09-27T08:04:05;2.90;;;1.37;;
66559;SDS011;53413;49.878;8.142;2022-09-27T08:06:30;2.53;;;1.02;;
66559;SDS011;53413;49.878;8.142;2022-09-27T08:08:56;2.90;;;1.20;;
66559;SDS011;53413;49.878;8.142;2022-09-27T08:11:23;2.92;;;0.93;;
66559;SDS011;53413;49.878;8.142;2022-09-27T08:13:49;2.15;;;0.75;;
66559;SDS011;53413;49.878;8.142;2022-09-27T08:16:16;2.50;;;0.70;;
66559;SDS011;53413;49.878;8.142;2022-09-27T08:18:42;2.60;;;0.80;;
66559;SDS011;53413;49.878;8.142;2022-09-27T08:21:07;2.17;;;0.70;;
66559;SDS011;53413;49.878;8.142;2022-09-27T08:23:33;2.57;;;0.80;;
66559;SDS011;53413;49.878;8.142;2022-09-27T08:25:58;3.30;;;0.80;;
66559;SDS011;53413;49.878;8.142;2022-09-27T08:28:25;3.13;;;0.70;;
66559;SDS011;53413;49.878;8.142;2022-09-27T08:30:51;3.17;;;0.87;;
66559;SDS011;53413;49.878;8.142;2022-09-27T08:33:16;2.63;;;0.70;;
66559;SDS011;53413;49.878;8.142;2022-09-27T08:35:42;2.30;;;0.80;;
66559;SDS011;53413;49.878;8.142;2022-09-27T08:38:08;2.60;;;0.60;;
66559;SDS011;53413;49.878;8.142;2022-09-27T08:48:31;2.45;;;0.73;;
66559;SDS011;53413;49.878;8.142;2022-09-27T08:51:00;2.40;;;0.60;;
66559;SDS011;53413;49.878;8.142;2022-09-27T08:53:30;2.40;;;0.60;;
66559;SDS011;53413;49.878;8.142;2022-09-27T08:56:02;2.13;;;0.65;;
66559;SDS011;53413;49.878;8.142;2022-09-27T08:58:31;2.30;;;0.90;;
66559;SDS011;53413;49.878;8.142;2022-09-27T09:01:03;2.88;;;0.70;;
66559;SDS011;53413;49.878;8.142;2022-09-27T09:03:32;2.70;;;0.70;;
66559;SDS011;53413;49.878;8.142;2022-09-27T09:08:38;2.50;;;0.60;;
66559;SDS011;53413;49.878;8.142;2022-09-27T09:19:57;2.77;;;0.97;;
66559;SDS011;53413;49.878;8.142;2022-09-27T09:28:42;1.58;;;0.47;;
66559;SDS011;53413;49.878;8.142;2022-09-27T09:31:27;2.40;;;0.60;;
66559;SDS011;53413;49.878;8.142;2022-09-27T09:34:02;2.80;;;0.70;;
66559;SDS011;53413;49.878;8.142;2022-09-27T09:36:38;2.13;;;0.60;;
66559;SDS011;53413;49.878;8.142;2022-09-27T09:44:29;2.50;;;0.70;;
66559;SDS011;53413;49.878;8.142;2022-09-27T09:47:02;2.50;;;0.70;;
66559;SDS011;53413;49.878;8.142;2022-09-27T09:49:35;2.10;;;0.75;;
66559;SDS011;53413;49.878;8.142;2022-09-27T09:52:11;2.25;;;0.60;;
66559;SDS011;53413;49.878;8.142;2022-09-27T09:54:52;2.55;;;0.70;;
66559;SDS011;53413;49.878;8.142;2022-09-27T09:57:30;2.38;;;0.70;;
66559;SDS011;53413;49.878;8.142;2022-09-27T10:02:44;2.72;;;1.25;;
66559;SDS011;53413;49.878;8.142;2022-09-27T10:05:15;3.78;;;1.40;;
66559;SDS011;53413;49.878;8.142;2022-09-27T10:07:43;3.33;;;0.90;;
66559;SDS011;53413;49.878;8.142;2022-09-27T10:10:12;2.70;;;1.10;;
66559;SDS011;53413;49.878;8.142;2022-09-27T10:12:39;3.80;;;0.80;;
66559;SDS011;53413;49.878;8.142;2022-09-27T10:15:11;2.65;;;0.90;;
66559;SDS011;53413;49.878;8.142;2022-09-27T10:17:41;2.40;;;0.70;;
66559;SDS011;53413;49.878;8.142;2022-09-27T10:20:15;2.60;;;0.80;;
66559;SDS011;53413;49.878;8.142;2022-09-27T10:22:53;3.13;;;0.95;;
66559;SDS011;53413;49.878;8.142;2022-09-27T10:25:23;3.30;;;0.90;;
66559;SDS011;53413;49.878;8.142;2022-09-27T10:27:50;2.47;;;0.90;;
66559;SDS011;53413;49.878;8.142;2022-09-27T10:30:22;2.67;;;0.90;;
66559;SDS011;53413;49.878;8.142;2022-09-27T10:32:49;3.28;;;1.10;;
66559;SDS011;53413;49.878;8.142;2022-09-27T10:40:50;3.05;;;1.25;;
66559;SDS011;53413;49.878;8.142;2022-09-27T10:43:28;4.43;;;1.20;;
66559;SDS011;53413;49.878;8.142;2022-09-27T10:51:40;3.28;;;1.10;;
66559;SDS011;53413;49.878;8.142;2022-09-27T10:54:16;4.07;;;1.58;;
66559;SDS011;53413;49.878;8.142;2022-09-27T10:56:44;3.40;;;1.35;;
66559;SDS011;53413;49.878;8.142;2022-09-27T10:59:18;4.75;;;1.50;;
66559;SDS011;53413;49.878;8.142;2022-09-27T11:01:44;3.85;;;1.40;;
66559;SDS011;53413;49.878;8.142;2022-09-27T11:06:48;3.55;;;1.10;;
66559;SDS011;53413;49.878;8.142;2022-09-27T11:09:18;3.80;;;1.17;;
66559;SDS011;53413;49.878;8.142;2022-09-27T11:12:12;3.90;;;1.40;;
66559;SDS011;53413;49.878;8.142;2022-09-27T11:14:38;4.07;;;1.20;;
66559;SDS011;53413;49.878;8.142;2022-09-27T11:25:43;4.83;;;1.30;;
66559;SDS011;53413;49.878;8.142;2022-09-27T11:28:31;3.30;;;1.10;;
66559;SDS011;53413;49.878;8.142;2022-09-27T11:33:59;3.53;;;1.20;;
66559;SDS011;53413;49.878;8.142;2022-09-27T11:42:23;4.38;;;1.85;;
66559;SDS011;53413;49.878;8.142;2022-09-27T11:50:48;4.45;;;1.83;;
66559;SDS011;53413;49.878;8.142;2022-09-27T11:55:53;4.13;;;2.00;;
66559;SDS011;53413;49.878;8.142;2022-09-27T11:58:56;4.18;;;1.70;;
66559;SDS011;53413;49.878;8.142;2022-09-27T12:09:44;3.75;;;1.50;;
66559;SDS011;53413;49.878;8.142;2022-09-27T12:14:44;3.42;;;1.30;;
66559;SDS011;53413;49.878;8.142;2022-09-27T12:17:15;4.70;;;1.50;;
66559;SDS011;53413;49.878;8.142;2022-09-27T12:19:51;4.75;;;1.30;;
66559;SDS011;53413;49.878;8.142;2022-09-27T12:22:24;6.45;;;1.80;;
66559;SDS011;53413;49.878;8.142;2022-09-27T12:24:57;6.22;;;1.80;;
66559;SDS011;53413;49.878;8.142;2022-09-27T12:27:38;5.50;;;1.40;;
66559;SDS011;53413;49.878;8.142;2022-09-27T12:30:10;4.13;;;1.50;;
66559;SDS011;53413;49.878;8.142;2022-09-27T12:35:18;4.28;;;1.00;;
66559;SDS011;53413;49.878;8.142;2022-09-27T12:40:52;3.42;;;1.05;;
66559;SDS011;53413;49.878;8.142;2022-09-27T12:43:23;4.50;;;1.15;;
66559;SDS011;53413;49.878;8.142;2022-09-27T12:51:21;3.27;;;1.20;;
66559;SDS011;53413;49.878;8.142;2022-09-27T13:05:07;3.20;;;0.90;;
66559;SDS011;53413;49.878;8.142;2022-09-27T13:08:12;2.50;;;0.90;;
66559;SDS011;53413;49.878;8.142;2022-09-27T13:11:07;3.88;;;1.20;;
66559;SDS011;53413;49.878;8.142;2022-09-27T13:13:34;3.95;;;1.25;;
66559;SDS011;53413;49.878;8.142;2022-09-27T13:16:01;3.25;;;1.20;;
66559;SDS011;53413;49.878;8.142;2022-09-27T13:19:15;4.00;;;1.95;;
66559;SDS011;53413;49.878;8.142;2022-09-27T13:27:02;3.50;;;1.15;;
66559;SDS011;53413;49.878;8.142;2022-09-27T13:29:47;2.92;;;1.10;;
66559;SDS011;53413;49.878;8.142;2022-09-27T13:32:18;3.53;;;1.40;;
66559;SDS011;53413;49.878;8.142;2022-09-27T13:34:45;4.45;;;1.60;;
66559;SDS011;53413;49.878;8.142;2022-09-27T13:37:22;7.03;;;3.13;;
66559;SDS011;53413;49.878;8.142;2022-09-27T13:40:08;3.50;;;1.50;;
66559;SDS011;53413;49.878;8.142;2022-09-27T13:42:35;4.85;;;1.80;;
66559;SDS011;53413;49.878;8.142;2022-09-27T13:45:18;3.93;;;2.07;;
66559;SDS011;53413;49.878;8.142;2022-09-27T13:47:48;3.63;;;1.80;;
66559;SDS011;53413;49.878;8.142;2022-09-27T13:52:54;3.47;;;1.63;;
66559;SDS011;53413;49.878;8.142;2022-09-27T13:55:36;4.47;;;1.90;;
66559;SDS011;53413;49.878;8.142;2022-09-27T13:58:03;3.47;;;1.40;;
66559;SDS011;53413;49.878;8.142;2022-09-27T14:00:57;3.50;;;1.52;;
66559;SDS011;53413;49.878;8.142;2022-09-27T14:06:19;4.88;;;1.50;;
66559;SDS011;53413;49.878;8.142;2022-09-27T14:08:53;4.75;;;2.20;;
66559;SDS011;53413;49.878;8.142;2022-09-27T14:11:23;4.45;;;1.98;;
66559;SDS011;53413;49.878;8.142;2022-09-27T14:13:52;4.63;;;1.58;;
66559;SDS011;53413;49.878;8.142;2022-09-27T14:16:18;4.13;;;1.40;;
66559;SDS011;53413;49.878;8.142;2022-09-27T14:18:46;3.40;;;1.00;;
66559;SDS011;53413;49.878;8.142;2022-09-27T14:21:24;3.90;;;1.00;;
66559;SDS011;53413;49.878;8.142;2022-09-27T14:24:18;5.30;;;1.58;;
66559;SDS011;53413;49.878;8.142;2022-09-27T14:26:47;4.53;;;1.60;;
66559;SDS011;53413;49.878;8.142;2022-09-27T14:29:17;4.68;;;1.52;;
66559;SDS011;53413;49.878;8.142;2022-09-27T14:31:44;5.10;;;1.90;;
66559;SDS011;53413;49.878;8.142;2022-09-27T14:34:13;6.15;;;2.20;;
66559;SDS011;53413;49.878;8.142;2022-09-27T14:36:39;3.97;;;1.20;;
66559;SDS011;53413;49.878;8.142;2022-09-27T14:39:39;3.25;;;1.10;;
66559;SDS011;53413;49.878;8.142;2022-09-27T14:42:15;4.28;;;1.70;;
66559;SDS011;53413;49.878;8.142;2022-09-27T14:44:44;5.05;;;2.00;;
66559;SDS011;53413;49.878;8.142;2022-09-27T14:47:17;5.07;;;2.30;;
66559;SDS011;53413;49.878;8.142;2022-09-27T14:49:47;5.30;;;2.60;;
66559;SDS011;53413;49.878;8.142;2022-09-27T14:52:16;5.45;;;1.60;;
66559;SDS011;53413;49.878;8.142;2022-09-27T14:54:53;7.97;;;4.05;;
66559;SDS011;53413;49.878;8.142;2022-09-27T14:57:20;6.15;;;2.67;;
66559;SDS011;53413;49.878;8.142;2022-09-27T14:59:46;3.90;;;1.50;;
66559;SDS011;53413;49.878;8.142;2022-09-27T15:02:16;3.97;;;1.75;;
66559;SDS011;53413;49.878;8.142;2022-09-27T15:04:45;3.17;;;1.20;;
66559;SDS011;53413;49.878;8.142;2022-09-27T15:07:12;6.50;;;3.20;;
66559;SDS011;53413;49.878;8.142;2022-09-27T15:09:40;3.17;;;1.00;;
66559;SDS011;53413;49.878;8.142;2022-09-27T15:12:06;3.30;;;1.10;;
66559;SDS011;53413;49.878;8.142;2022-09-27T15:14:32;3.30;;;1.30;;
66559;SDS011;53413;49.878;8.142;2022-09-27T15:17:05;4.35;;;1.70;;
66559;SDS011;53413;49.878;8.142;2022-09-27T15:19:31;5.13;;;2.30;;
66559;SDS011;53413;49.878;8.142;2022-09-27T15:24:46;4.20;;;1.80;;
66559;SDS011;53413;49.878;8.142;2022-09-27T15:27:30;3.13;;;1.20;;
66559;SDS011;53413;49.878;8.142;2022-09-27T15:29:56;2.92;;;1.10;;
66559;SDS011;53413;49.878;8.142;2022-09-27T15:32:23;4.22;;;1.40;;
66559;SDS011;53413;49.878;8.142;2022-09-27T15:34:51;4.50;;;1.40;;
66559;SDS011;53413;49.878;8.142;2022-09-27T15:37:36;3.87;;;1.20;;
66559;SDS011;53413;49.878;8.142;2022-09-27T15:42:59;2.60;;;1.00;;
66559;SDS011;53413;49.878;8.142;2022-09-27T15:45:30;2.95;;;1.20;;
66559;SDS011;53413;49.878;8.142;2022-09-27T15:48:13;2.95;;;1.00;;
66559;SDS011;53413;49.878;8.142;2022-09-27T15:50:40;3.97;;;1.10;;
66559;SDS011;53413;49.878;8.142;2022-09-27T15:53:07;4.22;;;1.08;;
66559;SDS011;53413;49.878;8.142;2022-09-27T15:55:39;3.00;;;1.20;;
66559;SDS011;53413;49.878;8.142;2022-09-27T15:58:14;2.95;;;1.10;;
66559;SDS011;53413;49.878;8.142;2022-09-27T16:00:53;3.13;;;1.00;;
66559;SDS011;53413;49.878;8.142;2022-09-27T16:03:20;3.33;;;1.13;;
66559;SDS011;53413;49.878;8.142;2022-09-27T16:05:45;3.38;;;1.10;;
66559;SDS011;53413;49.878;8.142;2022-09-27T16:08:11;3.90;;;1.30;;
66559;SDS011;53413;49.878;8.142;2022-09-27T16:10:37;3.50;;;1.30;;
66559;SDS011;53413;49.878;8.142;2022-09-27T16:13:04;4.13;;;1.10;;
66559;SDS011;53413;49.878;8.142;2022-09-27T16:15:30;3.40;;;1.10;;
66559;SDS011;53413;49.878;8.142;2022-09-27T16:17:56;3.85;;;1.70;;
66559;SDS011;53413;49.878;8.142;2022-09-27T16:20:22;4.53;;;1.77;;
66559;SDS011;53413;49.878;8.142;2022-09-27T16:22:50;3.03;;;1.00;;
66559;SDS011;53413;49.878;8.142;2022-09-27T16:25:17;3.20;;;1.17;;
66559;SDS011;53413;49.878;8.142;2022-09-27T16:27:43;3.28;;;1.40;;
66559;SDS011;53413;49.878;8.142;2022-09-27T16:30:09;4.25;;;1.60;;
66559;SDS011;53413;49.878;8.142;2022-09-27T16:32:39;3.00;;;1.20;;
66559;SDS011;53413;49.878;8.142;2022-09-27T16:35:05;3.97;;;1.10;;
66559;SDS011;53413;49.878;8.142;2022-09-27T16:37:32;4.63;;;1.40;;
66559;SDS011;53413;49.878;8.142;2022-09-27T16:39:58;3.80;;;1.30;;
66559;SDS011;53413;49.878;8.142;2022-09-27T16:42:23;3.60;;;1.10;;
66559;SDS011;53413;49.878;8.142;2022-09-27T16:44:48;9.95;;;6.90;;
66559;SDS011;53413;49.878;8.142;2022-09-27T16:47:14;4.73;;;1.73;;
66559;SDS011;53413;49.878;8.142;2022-09-27T16:49:40;3.35;;;1.30;;
66559;SDS011;53413;49.878;8.142;2022-09-27T16:52:24;3.20;;;1.25;;
66559;SDS011;53413;49.878;8.142;2022-09-27T16:54:49;3.97;;;1.40;;
66559;SDS011;53413;49.878;8.142;2022-09-27T16:57:14;4.45;;;1.80;;
66559;SDS011;53413;49.878;8.142;2022-09-27T16:59:40;3.67;;;1.30;;
66559;SDS011;53413;49.878;8.142;2022-09-27T17:02:05;3.13;;;1.20;;
66559;SDS011;53413;49.878;8.142;2022-09-27T17:04:30;3.93;;;1.00;;
66559;SDS011;53413;49.878;8.142;2022-09-27T17:06:56;3.00;;;1.10;;
66559;SDS011;53413;49.878;8.142;2022-09-27T17:09:22;2.90;;;1.08;;
66559;SDS011;53413;49.878;8.142;2022-09-27T17:11:47;3.77;;;1.20;;
66559;SDS011;53413;49.878;8.142;2022-09-27T17:14:13;3.40;;;1.20;;
66559;SDS011;53413;49.878;8.142;2022-09-27T17:16:40;4.72;;;1.55;;
66559;SDS011;53413;49.878;8.142;2022-09-27T17:19:07;4.63;;;1.85;;
66559;SDS011;53413;49.878;8.142;2022-09-27T17:21:34;2.97;;;1.10;;
66559;SDS011;53413;49.878;8.142;2022-09-27T17:24:00;4.25;;;1.10;;
66559;SDS011;53413;49.878;8.142;2022-09-27T17:26:25;3.30;;;1.37;;
66559;SDS011;53413;49.878;8.142;2022-09-27T17:28:55;4.63;;;2.20;;
66559;SDS011;53413;49.878;8.142;2022-09-27T17:31:21;4.20;;;1.87;;
66559;SDS011;53413;49.878;8.142;2022-09-27T17:33:47;4.90;;;2.20;;
66559;SDS011;53413;49.878;8.142;2022-09-27T17:36:19;5.57;;;2.60;;
66559;SDS011;53413;49.878;8.142;2022-09-27T17:38:47;4.40;;;1.50;;
66559;SDS011;53413;49.878;8.142;2022-09-27T17:41:14;4.53;;;1.60;;
66559;SDS011;53413;49.878;8.142;2022-09-27T17:43:42;6.00;;;1.95;;
66559;SDS011;53413;49.878;8.142;2022-09-27T17:46:16;5.05;;;2.22;;
66559;SDS011;53413;49.878;8.142;2022-09-27T17:48:43;5.95;;;2.20;;